sensor_id;sensor_type;location;lat;lon;timestamp;temperature;humidity
10042;DHT22;5061;49.068;12.058;2023-08-30T02:00:56;13.40;99.90
10042;DHT22;5061;49.068;12.058;2023-08-30T02:04:43;13.40;99.90
10042;DHT22;5061;49.068;12.058;2023-08-30T02:11:59;13.30;99.90
10042;DHT22;5061;49.068;12.058;2023-08-30T02:15:26;13.30;99.90
10042;DHT22;5061;49.068;12.058;2023-08-30T02:19:09;13.30;99.90
10042;DHT22;5061;49.068;12.058;2023-08-30T02:27:07;13.30;99.90
10042;DHT22;5061;49.068;12.058;2023-08-30T02:30:57;13.30;99.90
10042;DHT22;5061;49.068;12.058;2023-08-30T02:38:35;13.30;99.90
10042;DHT22;5061;49.068;12.058;2023-08-30T02:42:02;13.30;99.90
10042;DHT22;5061;49.068;12.058;2023-08-30T02:45:31;13.30;99.90
10042;DHT22;5061;49.068;12.058;2023-08-30T02:48:59;13.30;99.90
10042;DHT22;5061;49.068;12.058;2023-08-30T02:52:26;13.30;99.90
10042;DHT22;5061;49.068;12.058;2023-08-30T02:55:53;13.30;99.90
10042;DHT22;5061;49.068;12.058;2023-08-30T02:59:17;13.30;99.90
10042;DHT22;5061;49.068;12.058;2023-08-30T03:02:38;13.30;99.90
10042;DHT22;5061;49.068;12.058;2023-08-30T03:06:09;13.30;99.90
10042;DHT22;5061;49.068;12.058;2023-08-30T03:09:33;13.30;99.90
10042;DHT22;5061;49.068;12.058;2023-08-30T03:12:54;13.30;99.90
10042;DHT22;5061;49.068;12.058;2023-08-30T03:16:47;13.30;99.90
10042;DHT22;5061;49.068;12.058;2023-08-30T03:20:14;13.20;99.90
10042;DHT22;5061;49.068;12.058;2023-08-30T03:23:55;13.30;99.90
10042;DHT22;5061;49.068;12.058;2023-08-30T03:28:00;13.30;99.90
10042;DHT22;5061;49.068;12.058;2023-08-30T03:31:23;13.20;99.90
10042;DHT22;5061;49.068;12.058;2023-08-30T03:34:50;13.20;99.90
10042;DHT22;5061;49.068;12.058;2023-08-30T03:38:19;13.20;99.90
10042;DHT22;5061;49.068;12.058;2023-08-30T03:41:52;13.20;99.90
10042;DHT22;5061;49.068;12.058;2023-08-30T03:45:22;13.20;99.90
10042;DHT22;5061;49.068;12.058;2023-08-30T03:48:49;13.20;99.90
10042;DHT22;5061;49.068;12.058;2023-08-30T03:52:13;13.20;99.90
10042;DHT22;5061;49.068;12.058;2023-08-30T03:55:53;13.20;99.90
10042;DHT22;5061;49.068;12.058;2023-08-30T04:03:12;13.10;99.90
10042;DHT22;5061;49.068;12.058;2023-08-30T04:06:43;13.20;99.90
10042;DHT22;5061;49.068;12.058;2023-08-30T04:14:05;13.10;99.90
10042;DHT22;5061;49.068;12.058;2023-08-30T04:20:53;13.10;99.90
10042;DHT22;5061;49.068;12.058;2023-08-30T04:24:14;13.10;99.90
10042;DHT22;5061;49.068;12.058;2023-08-30T04:27:35;13.10;99.90
10042;DHT22;5061;49.068;12.058;2023-08-30T04:30:56;13.10;99.90
10042;DHT22;5061;49.068;12.058;2023-08-30T04:34:16;13.10;99.90
10042;DHT22;5061;49.068;12.058;2023-08-30T04:37:37;13.10;99.90
10042;DHT22;5061;49.068;12.058;2023-08-30T04:41:00;13.10;99.90
10042;DHT22;5061;49.068;12.058;2023-08-30T04:44:20;13.10;99.90
10042;DHT22;5061;49.068;12.058;2023-08-30T04:47:44;13.10;99.90
10042;DHT22;5061;49.068;12.058;2023-08-30T04:51:05;13.10;99.90
10042;DHT22;5061;49.068;12.058;2023-08-30T04:54:26;13.10;99.90
10042;DHT22;5061;49.068;12.058;2023-08-30T04:57:46;13.10;99.90
10042;DHT22;5061;49.068;12.058;2023-08-30T05:01:07;13.10;99.90
10042;DHT22;5061;49.068;12.058;2023-08-30T05:04:28;13.10;99.90
10042;DHT22;5061;49.068;12.058;2023-08-30T05:07:49;13.10;99.90
10042;DHT22;5061;49.068;12.058;2023-08-30T05:11:09;13.10;99.90
10042;DHT22;5061;49.068;12.058;2023-08-30T05:14:30;13.10;99.90
10042;DHT22;5061;49.068;12.058;2023-08-30T05:17:50;13.10;99.90
10042;DHT22;5061;49.068;12.058;2023-08-30T05:21:11;13.10;99.90
10042;DHT22;5061;49.068;12.058;2023-08-30T05:24:31;13.10;99.90
10042;DHT22;5061;49.068;12.058;2023-08-30T05:27:52;13.10;99.90
10042;DHT22;5061;49.068;12.058;2023-08-30T05:31:12;13.10;99.90
10042;DHT22;5061;49.068;12.058;2023-08-30T05:34:33;13.10;99.90
10042;DHT22;5061;49.068;12.058;2023-08-30T05:37:54;13.10;99.90
10042;DHT22;5061;49.068;12.058;2023-08-30T05:41:14;13.10;99.90
10042;DHT22;5061;49.068;12.058;2023-08-30T05:44:34;13.20;99.90
10042;DHT22;5061;49.068;12.058;2023-08-30T05:47:55;13.20;99.90
10042;DHT22;5061;49.068;12.058;2023-08-30T05:51:15;13.20;99.90
10042;DHT22;5061;49.068;12.058;2023-08-30T05:54:36;13.20;99.90
10042;DHT22;5061;49.068;12.058;2023-08-30T05:57:57;13.20;99.90
10042;DHT22;5061;49.068;12.058;2023-08-30T06:01:18;13.20;99.90
10042;DHT22;5061;49.068;12.058;2023-08-30T06:04:38;13.30;99.90
10042;DHT22;5061;49.068;12.058;2023-08-30T06:07:59;13.30;99.90
10042;DHT22;5061;49.068;12.058;2023-08-30T06:11:19;13.30;99.90
10042;DHT22;5061;49.068;12.058;2023-08-30T06:14:40;13.30;99.90
10042;DHT22;5061;49.068;12.058;2023-08-30T06:18:01;13.30;99.90
10042;DHT22;5061;49.068;12.058;2023-08-30T06:21:21;13.30;99.90
10042;DHT22;5061;49.068;12.058;2023-08-30T06:24:42;13.40;99.90
10042;DHT22;5061;49.068;12.058;2023-08-30T06:28:02;13.40;99.90
10042;DHT22;5061;49.068;12.058;2023-08-30T06:31:23;13.40;99.90
10042;DHT22;5061;49.068;12.058;2023-08-30T06:34:44;13.40;99.90
10042;DHT22;5061;49.068;12.058;2023-08-30T06:38:04;13.40;99.90
10042;DHT22;5061;49.068;12.058;2023-08-30T06:41:25;13.40;99.90
10042;DHT22;5061;49.068;12.058;2023-08-30T06:44:45;13.40;99.90
10042;DHT22;5061;49.068;12.058;2023-08-30T06:48:06;13.40;99.90
10042;DHT22;5061;49.068;12.058;2023-08-30T06:51:28;13.40;99.90
10042;DHT22;5061;49.068;12.058;2023-08-30T06:54:48;13.40;99.90
10042;DHT22;5061;49.068;12.058;2023-08-30T06:58:09;13.40;99.90
10042;DHT22;5061;49.068;12.058;2023-08-30T07:01:29;13.40;99.90
10042;DHT22;5061;49.068;12.058;2023-08-30T07:04:50;13.50;99.90
10042;DHT22;5061;49.068;12.058;2023-08-30T07:08:10;13.50;99.90
10042;DHT22;5061;49.068;12.058;2023-08-30T07:11:31;13.50;99.90
10042;DHT22;5061;49.068;12.058;2023-08-30T07:14:51;13.50;99.90
10042;DHT22;5061;49.068;12.058;2023-08-30T07:18:12;13.50;99.90
10042;DHT22;5061;49.068;12.058;2023-08-30T07:21:32;13.50;99.90
10042;DHT22;5061;49.068;12.058;2023-08-30T07:24:54;13.50;99.90
10042;DHT22;5061;49.068;12.058;2023-08-30T07:28:15;13.50;99.90
10042;DHT22;5061;49.068;12.058;2023-08-30T07:31:36;13.50;99.90
10042;DHT22;5061;49.068;12.058;2023-08-30T07:34:56;13.60;99.90
10042;DHT22;5061;49.068;12.058;2023-08-30T07:38:17;13.60;99.90
10042;DHT22;5061;49.068;12.058;2023-08-30T07:41:37;13.70;99.90
10042;DHT22;5061;49.068;12.058;2023-08-30T07:44:58;13.70;99.90
10042;DHT22;5061;49.068;12.058;2023-08-30T07:48:18;13.80;99.90
10042;DHT22;5061;49.068;12.058;2023-08-30T07:51:38;13.80;99.90
10042;DHT22;5061;49.068;12.058;2023-08-30T07:54:59;13.80;99.90
10042;DHT22;5061;49.068;12.058;2023-08-30T07:58:19;13.80;99.90
10042;DHT22;5061;49.068;12.058;2023-08-30T08:01:40;13.90;99.90
10042;DHT22;5061;49.068;12.058;2023-08-30T08:05:01;13.90;99.90
10042;DHT22;5061;49.068;12.058;2023-08-30T08:08:21;14.00;99.90
10042;DHT22;5061;49.068;12.058;2023-08-30T08:11:42;14.00;99.90
10042;DHT22;5061;49.068;12.058;2023-08-30T08:15:03;14.10;99.90
10042;DHT22;5061;49.068;12.058;2023-08-30T08:18:24;14.20;99.90
10042;DHT22;5061;49.068;12.058;2023-08-30T08:21:45;14.30;99.90
10042;DHT22;5061;49.068;12.058;2023-08-30T08:25:05;14.30;99.90
10042;DHT22;5061;49.068;12.058;2023-08-30T08:28:26;14.40;99.90
10042;DHT22;5061;49.068;12.058;2023-08-30T08:31:46;14.50;99.90
10042;DHT22;5061;49.068;12.058;2023-08-30T08:35:07;14.50;99.90
10042;DHT22;5061;49.068;12.058;2023-08-30T08:38:27;14.70;99.90
10042;DHT22;5061;49.068;12.058;2023-08-30T08:41:48;14.80;99.90
10042;DHT22;5061;49.068;12.058;2023-08-30T08:45:12;14.80;99.90
10042;DHT22;5061;49.068;12.058;2023-08-30T08:48:33;14.90;99.90
10042;DHT22;5061;49.068;12.058;2023-08-30T08:51:56;14.90;99.90
10042;DHT22;5061;49.068;12.058;2023-08-30T08:55:17;14.90;99.90
10042;DHT22;5061;49.068;12.058;2023-08-30T08:58:37;15.00;99.90
10042;DHT22;5061;49.068;12.058;2023-08-30T09:01:59;15.00;99.90
10042;DHT22;5061;49.068;12.058;2023-08-30T09:05:20;15.10;99.90
10042;DHT22;5061;49.068;12.058;2023-08-30T09:08:41;15.10;99.90
10042;DHT22;5061;49.068;12.058;2023-08-30T09:12:01;15.10;99.90
10042;DHT22;5061;49.068;12.058;2023-08-30T09:15:22;15.10;99.90
10042;DHT22;5061;49.068;12.058;2023-08-30T09:18:59;15.20;99.90
10042;DHT22;5061;49.068;12.058;2023-08-30T09:22:20;15.20;99.90
10042;DHT22;5061;49.068;12.058;2023-08-30T09:25:41;15.30;99.90
10042;DHT22;5061;49.068;12.058;2023-08-30T09:29:05;15.30;99.90
10042;DHT22;5061;49.068;12.058;2023-08-30T09:32:26;15.30;99.90
10042;DHT22;5061;49.068;12.058;2023-08-30T09:35:47;15.30;99.90
10042;DHT22;5061;49.068;12.058;2023-08-30T09:39:11;15.30;99.90
10042;DHT22;5061;49.068;12.058;2023-08-30T09:42:31;15.50;99.90
10042;DHT22;5061;49.068;12.058;2023-08-30T09:45:52;15.50;99.90
10042;DHT22;5061;49.068;12.058;2023-08-30T09:49:12;15.60;99.90
10042;DHT22;5061;49.068;12.058;2023-08-30T09:52:33;15.60;99.90
10042;DHT22;5061;49.068;12.058;2023-08-30T09:55:55;15.60;99.90
10042;DHT22;5061;49.068;12.058;2023-08-30T09:59:16;15.60;99.90
10042;DHT22;5061;49.068;12.058;2023-08-30T10:02:36;15.70;99.90
10042;DHT22;5061;49.068;12.058;2023-08-30T10:05:57;15.70;99.90
10042;DHT22;5061;49.068;12.058;2023-08-30T10:09:18;15.80;99.90
10042;DHT22;5061;49.068;12.058;2023-08-30T10:12:39;15.90;99.90
10042;DHT22;5061;49.068;12.058;2023-08-30T10:16:01;16.00;99.90
10042;DHT22;5061;49.068;12.058;2023-08-30T10:19:24;16.10;99.90
10042;DHT22;5061;49.068;12.058;2023-08-30T10:22:44;16.10;99.90
10042;DHT22;5061;49.068;12.058;2023-08-30T10:26:06;16.20;99.90
10042;DHT22;5061;49.068;12.058;2023-08-30T10:29:27;16.30;99.90
10042;DHT22;5061;49.068;12.058;2023-08-30T10:32:48;16.30;99.90
10042;DHT22;5061;49.068;12.058;2023-08-30T10:36:09;16.40;99.90
10042;DHT22;5061;49.068;12.058;2023-08-30T10:39:39;16.40;99.90
10042;DHT22;5061;49.068;12.058;2023-08-30T10:43:01;16.40;99.90
10042;DHT22;5061;49.068;12.058;2023-08-30T10:46:29;16.40;99.90
10042;DHT22;5061;49.068;12.058;2023-08-30T10:49:50;16.50;99.90
10042;DHT22;5061;49.068;12.058;2023-08-30T10:53:13;16.70;99.90
10042;DHT22;5061;49.068;12.058;2023-08-30T10:56:34;16.80;99.90
10042;DHT22;5061;49.068;12.058;2023-08-30T11:00:05;16.80;99.90
10042;DHT22;5061;49.068;12.058;2023-08-30T11:03:28;16.90;99.90
10042;DHT22;5061;49.068;12.058;2023-08-30T11:06:50;16.90;99.90
10042;DHT22;5061;49.068;12.058;2023-08-30T11:10:11;16.80;99.90
10042;DHT22;5061;49.068;12.058;2023-08-30T11:13:31;16.90;99.90
10042;DHT22;5061;49.068;12.058;2023-08-30T11:16:52;17.00;99.90
10042;DHT22;5061;49.068;12.058;2023-08-30T11:20:13;17.10;99.90
10042;DHT22;5061;49.068;12.058;2023-08-30T11:23:34;17.20;99.90
10042;DHT22;5061;49.068;12.058;2023-08-30T11:26:55;17.20;99.90
10042;DHT22;5061;49.068;12.058;2023-08-30T11:30:15;17.20;99.90
10042;DHT22;5061;49.068;12.058;2023-08-30T11:33:36;17.10;99.90
10042;DHT22;5061;49.068;12.058;2023-08-30T11:36:56;17.00;99.90
10042;DHT22;5061;49.068;12.058;2023-08-30T11:40:18;17.00;99.90
10042;DHT22;5061;49.068;12.058;2023-08-30T11:43:39;16.90;99.90
10042;DHT22;5061;49.068;12.058;2023-08-30T11:47:00;16.90;99.90
10042;DHT22;5061;49.068;12.058;2023-08-30T11:50:21;17.00;99.90
10042;DHT22;5061;49.068;12.058;2023-08-30T11:53:41;17.00;99.90
10042;DHT22;5061;49.068;12.058;2023-08-30T11:57:02;17.00;99.90
10042;DHT22;5061;49.068;12.058;2023-08-30T12:00:23;17.00;99.90
10042;DHT22;5061;49.068;12.058;2023-08-30T12:03:44;17.00;99.90
10042;DHT22;5061;49.068;12.058;2023-08-30T12:07:09;17.00;99.90
10042;DHT22;5061;49.068;12.058;2023-08-30T12:10:31;17.00;99.90
10042;DHT22;5061;49.068;12.058;2023-08-30T12:13:53;16.90;99.90
10042;DHT22;5061;49.068;12.058;2023-08-30T12:17:22;16.80;99.90
10042;DHT22;5061;49.068;12.058;2023-08-30T12:20:52;16.80;99.90
10042;DHT22;5061;49.068;12.058;2023-08-30T12:24:13;16.90;99.90
10042;DHT22;5061;49.068;12.058;2023-08-30T12:27:34;16.80;99.90
10042;DHT22;5061;49.068;12.058;2023-08-30T12:30:54;16.80;99.90
10042;DHT22;5061;49.068;12.058;2023-08-30T12:34:15;16.80;99.90
10042;DHT22;5061;49.068;12.058;2023-08-30T12:37:36;16.90;99.90
10042;DHT22;5061;49.068;12.058;2023-08-30T12:40:56;16.90;99.90
10042;DHT22;5061;49.068;12.058;2023-08-30T12:44:17;16.90;99.90
10042;DHT22;5061;49.068;12.058;2023-08-30T12:47:37;17.00;99.90
10042;DHT22;5061;49.068;12.058;2023-08-30T12:50:58;17.00;99.90
10042;DHT22;5061;49.068;12.058;2023-08-30T12:54:18;17.00;99.90
10042;DHT22;5061;49.068;12.058;2023-08-30T12:57:39;17.10;99.90
10042;DHT22;5061;49.068;12.058;2023-08-30T13:00:59;17.10;99.90
10042;DHT22;5061;49.068;12.058;2023-08-30T13:04:20;17.20;99.90
10042;DHT22;5061;49.068;12.058;2023-08-30T13:07:40;17.30;99.90
10042;DHT22;5061;49.068;12.058;2023-08-30T13:11:01;17.40;99.90
10042;DHT22;5061;49.068;12.058;2023-08-30T13:14:21;17.40;99.90
10042;DHT22;5061;49.068;12.058;2023-08-30T13:17:42;17.50;99.90
10042;DHT22;5061;49.068;12.058;2023-08-30T13:21:02;17.50;99.90
10042;DHT22;5061;49.068;12.058;2023-08-30T13:24:30;17.50;99.90
10042;DHT22;5061;49.068;12.058;2023-08-30T13:27:52;17.50;99.90
10042;DHT22;5061;49.068;12.058;2023-08-30T13:31:13;17.50;99.90
10042;DHT22;5061;49.068;12.058;2023-08-30T13:34:33;17.50;99.90
10042;DHT22;5061;49.068;12.058;2023-08-30T13:37:54;17.40;99.90
10042;DHT22;5061;49.068;12.058;2023-08-30T13:41:14;17.40;99.90
10042;DHT22;5061;49.068;12.058;2023-08-30T13:44:35;17.40;99.90
10042;DHT22;5061;49.068;12.058;2023-08-30T13:47:57;17.40;99.90
10042;DHT22;5061;49.068;12.058;2023-08-30T13:51:24;17.50;99.90
10042;DHT22;5061;49.068;12.058;2023-08-30T13:54:45;17.50;99.90
10042;DHT22;5061;49.068;12.058;2023-08-30T13:58:05;17.50;99.90
10042;DHT22;5061;49.068;12.058;2023-08-30T14:01:26;17.60;99.90
10042;DHT22;5061;49.068;12.058;2023-08-30T14:04:50;17.60;99.90
10042;DHT22;5061;49.068;12.058;2023-08-30T14:08:10;17.60;99.90
10042;DHT22;5061;49.068;12.058;2023-08-30T14:11:31;17.50;99.90
10042;DHT22;5061;49.068;12.058;2023-08-30T14:14:55;17.50;99.90
10042;DHT22;5061;49.068;12.058;2023-08-30T14:18:16;17.50;99.90
10042;DHT22;5061;49.068;12.058;2023-08-30T14:21:36;17.50;99.90
10042;DHT22;5061;49.068;12.058;2023-08-30T14:24:57;17.40;99.90
10042;DHT22;5061;49.068;12.058;2023-08-30T14:28:17;17.40;99.90
10042;DHT22;5061;49.068;12.058;2023-08-30T14:31:38;17.40;99.90
10042;DHT22;5061;49.068;12.058;2023-08-30T14:34:58;17.40;99.90
10042;DHT22;5061;49.068;12.058;2023-08-30T14:38:19;17.40;99.90
10042;DHT22;5061;49.068;12.058;2023-08-30T14:41:40;17.40;99.90
10042;DHT22;5061;49.068;12.058;2023-08-30T14:45:00;17.30;99.90
10042;DHT22;5061;49.068;12.058;2023-08-30T14:48:22;17.30;99.90
10042;DHT22;5061;49.068;12.058;2023-08-30T14:51:43;17.20;99.90
10042;DHT22;5061;49.068;12.058;2023-08-30T14:55:03;17.10;99.90
10042;DHT22;5061;49.068;12.058;2023-08-30T14:58:24;17.10;99.90
10042;DHT22;5061;49.068;12.058;2023-08-30T15:01:44;17.10;99.90
10042;DHT22;5061;49.068;12.058;2023-08-30T15:05:05;17.10;99.90
10042;DHT22;5061;49.068;12.058;2023-08-30T15:08:25;17.10;99.90
10042;DHT22;5061;49.068;12.058;2023-08-30T15:11:46;17.10;99.90
10042;DHT22;5061;49.068;12.058;2023-08-30T15:15:07;17.10;99.90
10042;DHT22;5061;49.068;12.058;2023-08-30T15:18:27;17.00;99.90
10042;DHT22;5061;49.068;12.058;2023-08-30T15:21:48;17.00;99.90
10042;DHT22;5061;49.068;12.058;2023-08-30T15:25:08;17.00;99.90
10042;DHT22;5061;49.068;12.058;2023-08-30T15:28:29;17.00;99.90
10042;DHT22;5061;49.068;12.058;2023-08-30T15:31:49;17.00;99.90
10042;DHT22;5061;49.068;12.058;2023-08-30T15:35:11;16.90;99.90
10042;DHT22;5061;49.068;12.058;2023-08-30T15:38:32;16.90;99.90
10042;DHT22;5061;49.068;12.058;2023-08-30T15:41:54;16.90;99.90
10042;DHT22;5061;49.068;12.058;2023-08-30T15:45:14;16.90;99.90
10042;DHT22;5061;49.068;12.058;2023-08-30T15:48:35;16.80;99.90
10042;DHT22;5061;49.068;12.058;2023-08-30T15:51:56;16.80;99.90
10042;DHT22;5061;49.068;12.058;2023-08-30T15:55:17;16.70;99.90
10042;DHT22;5061;49.068;12.058;2023-08-30T15:58:40;16.70;99.90
10042;DHT22;5061;49.068;12.058;2023-08-30T16:02:00;16.70;99.90
10042;DHT22;5061;49.068;12.058;2023-08-30T16:05:22;16.60;99.90
10042;DHT22;5061;49.068;12.058;2023-08-30T16:08:43;16.60;99.90
10042;DHT22;5061;49.068;12.058;2023-08-30T16:12:03;16.60;99.90
10042;DHT22;5061;49.068;12.058;2023-08-30T16:15:24;16.50;99.90
10042;DHT22;5061;49.068;12.058;2023-08-30T16:18:47;16.50;99.90
10042;DHT22;5061;49.068;12.058;2023-08-30T16:22:07;16.50;99.90
10042;DHT22;5061;49.068;12.058;2023-08-30T16:25:28;16.50;99.90
10042;DHT22;5061;49.068;12.058;2023-08-30T16:28:48;16.50;99.90
10042;DHT22;5061;49.068;12.058;2023-08-30T16:32:09;16.40;99.90
10042;DHT22;5061;49.068;12.058;2023-08-30T16:35:29;16.40;99.90
10042;DHT22;5061;49.068;12.058;2023-08-30T16:38:50;16.40;99.90
10042;DHT22;5061;49.068;12.058;2023-08-30T16:42:10;16.30;99.90
10042;DHT22;5061;49.068;12.058;2023-08-30T16:45:31;16.30;99.90
10042;DHT22;5061;49.068;12.058;2023-08-30T16:48:51;16.30;99.90
10042;DHT22;5061;49.068;12.058;2023-08-30T16:52:11;16.30;99.90
10042;DHT22;5061;49.068;12.058;2023-08-30T16:55:32;16.20;99.90
10042;DHT22;5061;49.068;12.058;2023-08-30T16:58:52;16.20;99.90
10042;DHT22;5061;49.068;12.058;2023-08-30T17:02:13;16.20;99.90
10042;DHT22;5061;49.068;12.058;2023-08-30T17:05:37;16.10;99.90
10042;DHT22;5061;49.068;12.058;2023-08-30T17:08:58;16.10;99.90
10042;DHT22;5061;49.068;12.058;2023-08-30T17:12:19;16.00;99.90
10042;DHT22;5061;49.068;12.058;2023-08-30T17:15:39;16.00;99.90
10042;DHT22;5061;49.068;12.058;2023-08-30T17:19:00;16.00;99.90
10042;DHT22;5061;49.068;12.058;2023-08-30T17:22:20;16.00;99.90
10042;DHT22;5061;49.068;12.058;2023-08-30T17:25:41;16.00;99.90
10042;DHT22;5061;49.068;12.058;2023-08-30T17:29:01;16.00;99.90
10042;DHT22;5061;49.068;12.058;2023-08-30T17:32:23;16.00;99.90
10042;DHT22;5061;49.068;12.058;2023-08-30T17:35:44;16.00;99.90
10042;DHT22;5061;49.068;12.058;2023-08-30T17:39:04;15.90;99.90
10042;DHT22;5061;49.068;12.058;2023-08-30T17:42:25;15.90;99.90
10042;DHT22;5061;49.068;12.058;2023-08-30T17:45:46;15.90;99.90
10042;DHT22;5061;49.068;12.058;2023-08-30T17:49:08;15.80;99.90
10042;DHT22;5061;49.068;12.058;2023-08-30T17:52:28;15.80;99.90
10042;DHT22;5061;49.068;12.058;2023-08-30T17:55:55;15.80;99.90
10042;DHT22;5061;49.068;12.058;2023-08-30T17:59:16;15.70;99.90
10042;DHT22;5061;49.068;12.058;2023-08-30T18:02:36;15.70;99.90
10042;DHT22;5061;49.068;12.058;2023-08-30T18:06:00;15.60;99.90
10042;DHT22;5061;49.068;12.058;2023-08-30T18:09:21;15.60;99.90
10042;DHT22;5061;49.068;12.058;2023-08-30T18:12:42;15.50;99.90
10042;DHT22;5061;49.068;12.058;2023-08-30T18:16:02;15.50;99.90
10042;DHT22;5061;49.068;12.058;2023-08-30T18:19:23;15.40;99.90
10042;DHT22;5061;49.068;12.058;2023-08-30T18:22:43;15.40;99.90
10042;DHT22;5061;49.068;12.058;2023-08-30T18:26:04;15.30;99.90
10042;DHT22;5061;49.068;12.058;2023-08-30T18:29:24;15.30;99.90
10042;DHT22;5061;49.068;12.058;2023-08-30T18:32:47;15.30;99.90
10042;DHT22;5061;49.068;12.058;2023-08-30T18:36:07;15.30;99.90
10042;DHT22;5061;49.068;12.058;2023-08-30T18:39:28;15.20;99.90
10042;DHT22;5061;49.068;12.058;2023-08-30T18:42:48;15.20;99.90
10042;DHT22;5061;49.068;12.058;2023-08-30T18:46:09;15.20;99.90
10042;DHT22;5061;49.068;12.058;2023-08-30T18:49:29;15.20;99.90
10042;DHT22;5061;49.068;12.058;2023-08-30T18:52:50;15.20;99.90
10042;DHT22;5061;49.068;12.058;2023-08-30T18:56:12;15.10;99.90
10042;DHT22;5061;49.068;12.058;2023-08-30T18:59:33;15.10;99.90
10042;DHT22;5061;49.068;12.058;2023-08-30T19:02:53;15.10;99.90
10042;DHT22;5061;49.068;12.058;2023-08-30T19:06:14;15.00;99.90
10042;DHT22;5061;49.068;12.058;2023-08-30T19:09:35;15.00;99.90
10042;DHT22;5061;49.068;12.058;2023-08-30T19:12:56;14.90;99.90
10042;DHT22;5061;49.068;12.058;2023-08-30T19:16:16;14.90;99.90
10042;DHT22;5061;49.068;12.058;2023-08-30T19:19:39;14.90;99.90
10042;DHT22;5061;49.068;12.058;2023-08-30T19:23:00;14.80;99.90
10042;DHT22;5061;49.068;12.058;2023-08-30T19:26:20;14.80;99.90
10042;DHT22;5061;49.068;12.058;2023-08-30T19:29:42;14.70;99.90
10042;DHT22;5061;49.068;12.058;2023-08-30T19:33:03;14.70;99.90
10042;DHT22;5061;49.068;12.058;2023-08-30T19:36:24;14.70;99.90
10042;DHT22;5061;49.068;12.058;2023-08-30T19:39:46;14.60;99.90
10042;DHT22;5061;49.068;12.058;2023-08-30T19:43:07;14.70;99.90
10042;DHT22;5061;49.068;12.058;2023-08-30T19:46:27;14.60;99.90
10042;DHT22;5061;49.068;12.058;2023-08-30T19:49:48;14.60;99.90
10042;DHT22;5061;49.068;12.058;2023-08-30T19:53:08;14.50;99.90
10042;DHT22;5061;49.068;12.058;2023-08-30T19:56:29;14.50;99.90
10042;DHT22;5061;49.068;12.058;2023-08-30T19:59:49;14.50;99.90
10042;DHT22;5061;49.068;12.058;2023-08-30T20:03:10;14.50;99.90
10042;DHT22;5061;49.068;12.058;2023-08-30T20:06:30;14.50;99.90
10042;DHT22;5061;49.068;12.058;2023-08-30T20:09:51;14.50;99.90
10042;DHT22;5061;49.068;12.058;2023-08-30T20:13:11;14.50;99.90
10042;DHT22;5061;49.068;12.058;2023-08-30T20:16:32;14.50;99.90
10042;DHT22;5061;49.068;12.058;2023-08-30T20:19:52;14.50;99.90
10042;DHT22;5061;49.068;12.058;2023-08-30T20:23:13;14.50;99.90
10042;DHT22;5061;49.068;12.058;2023-08-30T20:26:34;14.50;99.90
10042;DHT22;5061;49.068;12.058;2023-08-30T20:29:57;14.50;99.90
10042;DHT22;5061;49.068;12.058;2023-08-30T20:33:18;14.50;99.90
10042;DHT22;5061;49.068;12.058;2023-08-30T20:36:39;14.50;99.90
10042;DHT22;5061;49.068;12.058;2023-08-30T20:39:59;14.50;99.90
10042;DHT22;5061;49.068;12.058;2023-08-30T20:43:20;14.50;99.90
10042;DHT22;5061;49.068;12.058;2023-08-30T20:46:40;14.50;99.90
10042;DHT22;5061;49.068;12.058;2023-08-30T20:50:01;14.50;99.90
10042;DHT22;5061;49.068;12.058;2023-08-30T20:56:56;14.50;99.90
10042;DHT22;5061;49.068;12.058;2023-08-30T21:00:16;14.50;99.90
10042;DHT22;5061;49.068;12.058;2023-08-30T21:03:37;14.50;99.90
10042;DHT22;5061;49.068;12.058;2023-08-30T21:06:58;14.50;99.90
10042;DHT22;5061;49.068;12.058;2023-08-30T21:10:19;14.50;99.90
10042;DHT22;5061;49.068;12.058;2023-08-30T21:13:39;14.50;99.90
10042;DHT22;5061;49.068;12.058;2023-08-30T21:17:00;14.50;99.90
10042;DHT22;5061;49.068;12.058;2023-08-30T21:20:20;14.50;99.90
10042;DHT22;5061;49.068;12.058;2023-08-30T21:23:40;14.50;99.90
10042;DHT22;5061;49.068;12.058;2023-08-30T21:27:01;14.50;99.90
10042;DHT22;5061;49.068;12.058;2023-08-30T21:30:21;14.40;99.90
10042;DHT22;5061;49.068;12.058;2023-08-30T21:33:42;14.40;99.90
10042;DHT22;5061;49.068;12.058;2023-08-30T21:37:03;14.40;99.90
10042;DHT22;5061;49.068;12.058;2023-08-30T21:40:23;14.40;99.90
10042;DHT22;5061;49.068;12.058;2023-08-30T21:43:44;14.40;99.90
10042;DHT22;5061;49.068;12.058;2023-08-30T21:47:04;14.40;99.90
10042;DHT22;5061;49.068;12.058;2023-08-30T21:50:25;14.40;99.90
10042;DHT22;5061;49.068;12.058;2023-08-30T21:53:45;14.40;99.90
10042;DHT22;5061;49.068;12.058;2023-08-30T21:57:06;14.40;99.90
10042;DHT22;5061;49.068;12.058;2023-08-30T22:00:27;14.40;99.90
10042;DHT22;5061;49.068;12.058;2023-08-30T22:03:47;14.40;99.90
10042;DHT22;5061;49.068;12.058;2023-08-30T22:07:08;14.40;99.90
10042;DHT22;5061;49.068;12.058;2023-08-30T22:10:28;14.30;99.90
10042;DHT22;5061;49.068;12.058;2023-08-30T22:13:49;14.30;99.90
10042;DHT22;5061;49.068;12.058;2023-08-30T22:17:09;14.30;99.90
10042;DHT22;5061;49.068;12.058;2023-08-30T22:20:31;14.30;99.90
10042;DHT22;5061;49.068;12.058;2023-08-30T22:23:51;14.20;99.90
10042;DHT22;5061;49.068;12.058;2023-08-30T22:27:12;14.20;99.90
10042;DHT22;5061;49.068;12.058;2023-08-30T22:30:32;14.20;99.90
10042;DHT22;5061;49.068;12.058;2023-08-30T22:33:53;14.20;99.90
10042;DHT22;5061;49.068;12.058;2023-08-30T22:37:13;14.20;99.90
10042;DHT22;5061;49.068;12.058;2023-08-30T22:40:34;14.10;99.90
10042;DHT22;5061;49.068;12.058;2023-08-30T22:43:54;14.00;99.90
10042;DHT22;5061;49.068;12.058;2023-08-30T22:47:15;14.00;99.90
10042;DHT22;5061;49.068;12.058;2023-08-30T22:50:36;13.90;99.90
10042;DHT22;5061;49.068;12.058;2023-08-30T22:53:57;13.90;99.90
10042;DHT22;5061;49.068;12.058;2023-08-30T22:57:20;13.80;99.90
10042;DHT22;5061;49.068;12.058;2023-08-30T23:00:40;13.80;99.90
10042;DHT22;5061;49.068;12.058;2023-08-30T23:04:01;13.80;99.90
10042;DHT22;5061;49.068;12.058;2023-08-30T23:07:22;13.70;99.90
10042;DHT22;5061;49.068;12.058;2023-08-30T23:10:42;13.70;99.90
10042;DHT22;5061;49.068;12.058;2023-08-30T23:14:03;13.70;99.90
10042;DHT22;5061;49.068;12.058;2023-08-30T23:17:23;13.70;99.90
10042;DHT22;5061;49.068;12.058;2023-08-30T23:20:44;13.70;99.90
10042;DHT22;5061;49.068;12.058;2023-08-30T23:24:05;13.70;99.90
10042;DHT22;5061;49.068;12.058;2023-08-30T23:27:25;13.70;99.90
10042;DHT22;5061;49.068;12.058;2023-08-30T23:30:46;13.70;99.90
10042;DHT22;5061;49.068;12.058;2023-08-30T23:34:06;13.70;99.90
10042;DHT22;5061;49.068;12.058;2023-08-30T23:37:28;13.70;99.90
10042;DHT22;5061;49.068;12.058;2023-08-30T23:40:48;13.70;99.90